createdAt,value
2023-01-07T06:02:28.395Z,12.30
2023-01-07T06:07:32.044Z,12.30
2023-01-07T06:12:35.601Z,12.30
2023-01-07T06:17:40.717Z,12.30
2023-01-07T06:22:44.777Z,12.30
2023-01-07T06:27:49.859Z,12.30
2023-01-07T06:32:55.568Z,12.20
2023-01-07T06:38:01.060Z,12.20
2023-01-07T06:43:04.804Z,12.10
2023-01-07T06:48:10.373Z,12.00
2023-01-07T06:58:19.317Z,12.00
2023-01-07T07:03:24.350Z,11.80
2023-01-07T07:08:28.283Z,11.80
2023-01-07T07:13:32.049Z,11.80
2023-01-07T07:18:37.196Z,11.70
2023-01-07T07:23:40.821Z,11.60
2023-01-07T07:28:44.839Z,11.60
2023-01-07T07:33:49.928Z,11.60
2023-01-07T07:38:53.767Z,11.60
2023-01-07T07:43:57.365Z,11.50
2023-01-07T07:49:02.587Z,11.60
2023-01-07T07:54:06.372Z,11.50
2023-01-07T07:59:10.234Z,11.50
2023-01-07T08:04:16.364Z,11.50
2023-01-07T08:14:24.219Z,11.60
2023-01-07T08:19:29.314Z,11.50
2023-01-07T08:24:32.945Z,11.60
2023-01-07T08:29:36.628Z,11.60
2023-01-07T08:34:41.698Z,11.60
2023-01-07T08:44:50.066Z,11.70
2023-01-07T08:49:55.182Z,11.80
2023-01-07T08:54:58.845Z,11.70
2023-01-07T09:05:09.184Z,11.80
2023-01-07T09:10:13.825Z,11.90
2023-01-07T09:15:17.800Z,11.80
2023-01-07T09:20:22.960Z,11.90
2023-01-07T09:30:30.643Z,12.00
2023-01-07T09:35:35.782Z,12.00
2023-01-07T09:40:41.781Z,12.00
2023-01-07T09:45:48.811Z,12.10
2023-01-07T09:50:58.668Z,12.10
2023-01-07T10:01:26.415Z,12.60
2023-01-07T10:06:43.779Z,12.30
2023-01-07T10:11:57.701Z,12.30
2023-01-07T10:17:13.483Z,12.70
2023-01-07T10:22:24.396Z,12.40
2023-01-07T10:27:33.512Z,12.40
2023-01-07T10:37:44.620Z,12.60
2023-01-07T10:42:55.994Z,12.70
2023-01-07T10:48:31.943Z,12.80
2023-01-07T10:53:49.519Z,13.10
2023-01-07T10:58:53.327Z,13.10
2023-01-07T11:03:58.601Z,13.40
2023-01-07T11:09:05.824Z,13.50
2023-01-07T11:14:15.121Z,13.60
2023-01-07T11:24:34.904Z,13.70
2023-01-07T11:29:43.504Z,13.80
2023-01-07T11:34:56.427Z,13.90
2023-01-07T11:40:03.386Z,13.90
2023-01-07T11:45:14.995Z,14.00
2023-01-07T11:50:27.499Z,14.00
2023-01-07T11:55:32.624Z,14.10
2023-01-07T12:05:41.533Z,14.10
2023-01-07T12:10:46.878Z,14.10
2023-01-07T12:15:54.415Z,13.20
2023-01-07T12:21:30.867Z,13.90
2023-01-07T12:26:43.003Z,13.80
2023-01-07T12:32:00.184Z,13.70
2023-01-07T12:37:11.217Z,13.60
2023-01-07T12:47:35.090Z,13.60
2023-01-07T12:52:44.511Z,13.70
2023-01-07T12:58:00.192Z,13.70
2023-01-07T13:03:15.826Z,13.70
2023-01-07T13:08:26.369Z,14.20
2023-01-07T13:13:37.826Z,13.70
2023-01-07T13:24:10.830Z,13.90
2023-01-07T13:29:41.218Z,14.00
2023-01-07T13:34:55.935Z,14.10
2023-01-07T13:40:05.706Z,14.10
2023-01-07T13:45:21.029Z,14.20
2023-01-07T13:50:28.517Z,14.20
2023-01-07T13:55:43.340Z,14.20
2023-01-07T14:01:03.839Z,14.30
2023-01-07T14:06:44.811Z,14.20
2023-01-07T14:12:23.742Z,14.20
2023-01-07T14:17:38.709Z,14.20
2023-01-07T14:22:54.257Z,14.00
2023-01-07T14:28:23.563Z,14.00
2023-01-07T14:33:34.073Z,14.20
2023-01-07T14:39:30.766Z,14.20
2023-01-07T14:44:34.528Z,14.50
2023-01-07T14:50:02.320Z,14.80
2023-01-07T14:55:23.377Z,14.90
2023-01-07T15:01:15.088Z,15.00
2023-01-07T15:06:28.955Z,14.80
2023-01-07T15:11:52.735Z,14.60
2023-01-07T15:16:57.207Z,14.40
2023-01-07T15:22:08.351Z,14.30
2023-01-07T15:27:18.673Z,13.70
2023-01-07T15:32:41.290Z,14.10
2023-01-07T15:37:48.658Z,14.10
2023-01-07T15:42:54.554Z,13.40
2023-01-07T15:48:11.163Z,13.90
2023-01-07T15:53:24.677Z,13.90
2023-01-07T15:58:36.289Z,13.90
2023-01-07T16:03:40.853Z,13.70
2023-01-07T16:08:45.810Z,13.70
2023-01-07T16:13:57.112Z,13.70
2023-01-07T16:19:02.755Z,13.60
2023-01-07T16:24:08.476Z,13.60
2023-01-07T16:29:19.494Z,13.50
2023-01-07T16:34:56.075Z,13.40
2023-01-07T16:40:01.496Z,13.40
2023-01-07T16:45:11.380Z,13.40
2023-01-07T16:50:35.809Z,13.30
2023-01-07T16:55:51.523Z,13.20
2023-01-07T17:00:57.658Z,13.20
2023-01-07T17:06:04.484Z,13.20
2023-01-07T17:11:21.085Z,13.10
2023-01-07T17:16:30.406Z,13.10
2023-01-07T17:21:45.065Z,13.10
2023-01-07T17:26:50.633Z,13.10
2023-01-07T17:31:54.438Z,12.20
2023-01-07T17:36:58.120Z,13.00
2023-01-07T17:42:20.614Z,13.10
2023-01-07T17:47:24.272Z,13.10
2023-01-07T17:52:28.402Z,13.10
2023-01-07T17:57:33.523Z,13.10
2023-01-07T18:07:41.182Z,13.00
2023-01-07T18:12:47.013Z,13.00
2023-01-07T18:17:50.975Z,12.90
2023-01-07T18:22:54.594Z,12.90
2023-01-07T18:27:59.562Z,12.90
2023-01-07T18:33:03.408Z,12.80
2023-01-07T18:43:14.763Z,12.80
2023-01-07T18:48:21.570Z,12.70
2023-01-07T18:53:26.721Z,12.70
2023-01-07T18:58:31.696Z,12.70
2023-01-07T19:03:35.630Z,12.70
2023-01-07T19:08:40.215Z,12.60
2023-01-07T19:13:45.239Z,12.60
2023-01-07T19:18:49.046Z,12.60
2023-01-07T19:23:53.441Z,12.40
2023-01-07T19:28:58.583Z,11.60
2023-01-07T19:34:03.070Z,11.90
2023-01-07T19:39:06.827Z,11.60
2023-01-07T19:44:12.693Z,11.50
2023-01-07T19:49:16.573Z,11.40
2023-01-07T19:54:20.306Z,11.30
2023-01-07T19:59:26.550Z,11.30
2023-01-07T20:04:30.382Z,11.30
2023-01-07T20:09:36.212Z,11.20
2023-01-07T20:14:42.309Z,11.20
2023-01-07T20:19:45.941Z,11.20
2023-01-07T20:24:49.510Z,11.20
2023-01-07T20:29:54.513Z,11.20
2023-01-07T20:34:58.232Z,11.10
2023-01-07T20:40:01.831Z,11.00
2023-01-07T20:45:08.544Z,11.00
2023-01-07T20:50:13.334Z,11.00
2023-01-07T20:55:17.371Z,10.90
2023-01-07T21:00:22.646Z,10.80
2023-01-07T21:05:26.231Z,10.80
2023-01-07T21:10:29.914Z,10.80
2023-01-07T21:15:36.369Z,10.80
2023-01-07T21:20:41.223Z,10.90
2023-01-07T21:25:48.184Z,10.90
2023-01-07T21:30:53.152Z,10.90
2023-01-07T21:35:56.794Z,10.80
2023-01-07T21:41:00.651Z,10.80
2023-01-07T21:46:06.946Z,10.70
2023-01-07T21:51:15.431Z,10.70
2023-01-07T21:56:22.473Z,10.60
2023-01-07T22:01:29.353Z,10.60
2023-01-07T22:06:35.000Z,10.50
2023-01-07T22:11:41.564Z,10.40
2023-01-07T22:16:49.081Z,10.40
2023-01-07T22:21:53.261Z,10.40
2023-01-07T22:26:57.478Z,10.40
2023-01-07T22:32:02.499Z,10.40
2023-01-07T22:37:08.958Z,10.40
2023-01-07T22:42:16.053Z,10.40
2023-01-07T22:47:25.584Z,10.40
2023-01-07T22:52:29.359Z,10.40
2023-01-07T22:57:34.516Z,10.40
2023-01-07T23:02:39.528Z,10.30
2023-01-07T23:07:43.383Z,10.30
2023-01-07T23:12:47.116Z,10.40
2023-01-07T23:17:52.119Z,10.40
2023-01-07T23:22:55.735Z,10.50
2023-01-07T23:27:59.379Z,10.60
